Time;durP1;ratioP1;P1;durP2;ratioP2;P2;SDS_P1;SDS_P2;PMS_P1;PMS_P2;Temp;Humidity;BMP_temperature;BMP_pressure;BME280_temperature;BME280_humidity;BME280_pressure;Samples;Min_cycle;Max_cycle;Signal;HPM_P1;HPM_P2
2022/06/14 00:02:54;;;;;;;10.63;3.08;;;;;;;16.84;71.05;100445.58;1860691;77;21060;-59
2022/06/14 00:05:23;;;;;;;7.42;3.47;;;;;;;16.82;71.47;100445.26;1860648;77;21022;-59
2022/06/14 00:07:52;;;;;;;6.17;2.67;;;;;;;16.81;71.69;100443.09;1849606;77;21575;-59
2022/06/14 00:10:20;;;;;;;9.43;3.10;;;;;;;16.80;71.71;100438.72;1848773;78;21175;-59
2022/06/14 00:12:49;;;;;;;11.55;3.33;;;;;;;16.83;71.42;100439.88;1848799;78;21486;-59
2022/06/14 00:15:18;;;;;;;11.48;3.83;;;;;;;16.88;71.38;100436.91;1848701;78;21051;-59
2022/06/14 00:17:46;;;;;;;6.85;4.03;;;;;;;16.88;71.75;100443.06;1848721;77;21047;-59
2022/06/14 00:20:15;;;;;;;8.30;3.62;;;;;;;16.79;72.51;100435.70;1848559;78;21047;-60
2022/06/14 00:22:44;;;;;;;9.38;4.05;;;;;;;16.72;72.93;100438.41;1848717;78;21144;-59
2022/06/14 00:25:28;;;;;;;10.00;4.05;;;;;;;16.66;73.16;100435.70;1848724;78;21117;-59
2022/06/14 00:27:57;;;;;;;6.75;3.62;;;;;;;16.60;73.32;100439.64;1848684;78;21038;-59
2022/06/14 00:30:26;;;;;;;6.97;3.90;;;;;;;16.54;73.66;100436.55;1848680;78;21481;-59
2022/06/14 00:32:55;;;;;;;14.05;3.77;;;;;;;16.46;74.12;100442.39;1848641;78;22200;-59
2022/06/14 00:35:23;;;;;;;10.88;3.72;;;;;;;16.42;74.09;100439.58;1848653;78;21127;-59
2022/06/14 00:37:52;;;;;;;8.08;3.80;;;;;;;16.37;74.37;100441.69;1848707;77;21051;-59
2022/06/14 00:40:26;;;;;;;11.60;4.05;;;;;;;16.36;74.50;100445.32;1848671;78;21203;-59
2022/06/14 00:42:55;;;;;;;14.63;3.92;;;;;;;16.33;74.34;100449.50;1848701;77;21133;-59
2022/06/14 00:45:27;;;;;;;13.83;4.40;;;;;;;16.30;74.39;100461.66;1848531;77;21131;-59
2022/06/14 00:48:07;;;;;;;10.18;4.08;;;;;;;16.26;74.64;100464.16;1848665;78;21054;-59
2022/06/14 00:50:50;;;;;;;14.87;4.33;;;;;;;16.22;74.79;100468.81;1848699;78;21078;-59
2022/06/14 00:53:27;;;;;;;9.50;4.00;;;;;;;16.19;74.62;100461.91;1848754;78;21058;-59
2022/06/14 00:56:02;;;;;;;10.55;3.20;;;;;;;16.17;74.59;100465.61;1848706;78;21058;-59
2022/06/14 00:58:33;;;;;;;14.03;3.92;;;;;;;16.14;74.93;100464.02;1847720;77;21106;-59
2022/06/14 01:01:08;;;;;;;9.53;4.37;;;;;;;16.13;74.48;100463.63;1848692;78;21062;-59
2022/06/14 01:03:42;;;;;;;16.62;4.00;;;;;;;16.14;74.45;100471.98;1847911;77;21018;-59
2022/06/14 01:06:14;;;;;;;12.33;3.85;;;;;;;16.14;74.37;100471.98;1848571;78;21180;-60
2022/06/14 01:08:48;;;;;;;8.13;3.58;;;;;;;16.12;74.18;100469.92;1848632;77;21083;-59
2022/06/14 01:11:26;;;;;;;5.95;3.05;;;;;;;16.13;73.91;100462.30;1840327;78;21600;-59
2022/06/14 01:13:55;;;;;;;12.00;4.00;;;;;;;16.14;73.69;100469.33;1847502;76;21034;-59
2022/06/14 01:16:23;;;;;;;11.57;3.45;;;;;;;16.15;73.36;100472.34;1848683;78;21129;-60
2022/06/14 01:18:52;;;;;;;7.58;4.47;;;;;;;16.14;73.49;100474.64;1848628;78;21165;-59
2022/06/14 01:21:21;;;;;;;7.37;3.55;;;;;;;16.15;74.19;100475.00;1848647;78;21089;-59
2022/06/14 01:23:50;;;;;;;6.65;3.40;;;;;;;16.15;74.69;100477.66;1848711;77;21054;-59
2022/06/14 01:26:22;;;;;;;13.43;4.03;;;;;;;16.14;74.32;100481.28;1848654;78;21110;-59
2022/06/14 01:28:53;;;;;;;13.25;4.37;;;;;;;16.13;74.25;100483.55;1848043;78;21180;-59
2022/06/14 01:31:24;;;;;;;14.93;4.97;;;;;;;16.13;74.25;100488.86;1848622;78;21117;-59
2022/06/14 01:33:56;;;;;;;10.58;4.47;;;;;;;16.14;74.30;100486.59;1848750;78;21046;-60
2022/06/14 01:36:30;;;;;;;14.53;4.42;;;;;;;16.11;74.42;100488.12;1848762;78;21047;-60
2022/06/14 01:39:01;;;;;;;8.33;3.75;;;;;;;16.05;74.74;100493.84;1857636;75;21031;-59
2022/06/14 01:41:53;;;;;;;7.83;3.87;;;;;;;15.95;74.79;100488.75;1879776;76;21043;-58
2022/06/14 01:44:27;;;;;;;6.05;3.47;;;;;;;15.87;75.02;100488.41;1879956;76;21518;-57
2022/06/14 01:46:59;;;;;;;11.22;4.15;;;;;;;15.75;75.58;100493.58;1880009;76;21059;-57
2022/06/14 01:52:34;;;;;;;9.58;4.12;;;;;;;15.68;75.74;100494.88;1879950;76;21035;-58
2022/06/14 01:55:31;;;;;;;7.30;4.08;;;;;;;15.64;75.92;100494.71;1879390;75;21019;-58
2022/06/14 01:58:22;;;;;;;9.85;3.72;;;;;;;15.60;76.35;100489.20;1880075;76;21525;-58
2022/06/14 02:00:56;;;;;;;9.55;4.33;;;;;;;15.55;76.32;100496.62;1879952;76;21121;-58
2022/06/14 02:06:41;;;;;;;11.78;4.50;;;;;;;15.60;76.81;100503.80;1879922;76;21036;-57
2022/06/14 02:09:12;;;;;;;11.55;4.53;;;;;;;15.67;77.07;100510.91;1891166;75;21083;-59
2022/06/14 02:11:41;;;;;;;13.78;4.60;;;;;;;15.72;76.75;100509.66;1891034;74;21188;-63
2022/06/14 02:14:18;;;;;;;11.60;4.55;;;;;;;15.79;76.72;100512.81;1886073;76;21622;-64
2022/06/14 02:16:56;;;;;;;10.35;4.58;;;;;;;15.85;76.85;100514.22;1882117;76;21509;-63
2022/06/14 02:19:36;;;;;;;8.53;3.17;;;;;;;15.92;77.06;100514.20;1890375;76;21481;-61
2022/06/14 02:22:11;;;;;;;12.18;3.83;;;;;;;15.99;76.94;100511.48;1892543;76;21067;-63
2022/06/14 02:24:51;;;;;;;8.60;3.33;;;;;;;16.08;76.88;100512.22;1887156;76;21027;-62
2022/06/14 02:27:29;;;;;;;18.98;4.30;;;;;;;16.19;76.76;100517.70;1892734;76;21042;-62
2022/06/14 02:30:03;;;;;;;7.95;3.30;;;;;;;16.33;76.60;100514.59;1893061;76;21454;-62
2022/06/14 02:32:41;;;;;;;8.70;3.52;;;;;;;16.50;76.30;100514.30;1883327;75;21102;-60
2022/06/14 02:35:16;;;;;;;6.85;3.65;;;;;;;16.72;75.91;100512.36;1892165;76;21051;-61
2022/06/14 02:37:56;;;;;;;6.83;3.27;;;;;;;16.92;75.29;100520.83;1891439;75;21485;-63
2022/06/14 02:40:40;;;;;;;10.80;3.52;;;;;;;17.01;74.87;100515.36;1893002;76;21038;-62
2022/06/14 02:43:11;;;;;;;10.78;3.90;;;;;;;17.20;74.63;100517.57;1873242;74;21050;-62
2022/06/14 02:45:45;;;;;;;6.47;3.33;;;;;;;17.41;74.21;100524.05;1892903;76;21043;-62
2022/06/14 02:48:17;;;;;;;11.30;3.02;;;;;;;17.58;73.60;100529.48;1892754;76;21583;-63
2022/06/14 02:50:54;;;;;;;12.82;3.95;;;;;;;17.73;73.19;100533.70;1892831;76;21125;-63
2022/06/14 02:53:29;;;;;;;9.63;3.62;;;;;;;17.75;72.73;100534.43;1890872;76;21059;-62
2022/06/14 02:56:12;;;;;;;6.00;2.95;;;;;;;17.80;72.50;100530.58;1892909;76;21117;-61
2022/06/14 02:58:46;;;;;;;7.87;3.00;;;;;;;17.99;72.23;100528.31;1820605;76;21113;-63
2022/06/14 03:01:26;;;;;;;7.05;3.25;;;;;;;18.10;71.61;100532.86;1892935;76;21183;-60
2022/06/14 03:04:04;;;;;;;3.90;2.17;;;;;;;18.28;71.48;100531.98;1892682;76;21047;-62
2022/06/14 03:06:50;;;;;;;7.12;2.90;;;;;;;18.44;71.18;100528.53;1892227;76;21055;-62
2022/06/14 03:09:21;;;;;;;11.18;3.08;;;;;;;18.64;71.11;100528.81;1883370;76;21217;-62
2022/06/14 03:11:56;;;;;;;6.90;3.50;;;;;;;18.82;70.84;100527.44;1878894;76;21047;-61
2022/06/14 03:14:49;;;;;;;19.45;3.98;;;;;;;18.95;70.66;100531.84;1878664;76;21583;-62
2022/06/14 03:17:44;;;;;;;14.47;3.72;;;;;;;19.09;70.63;100532.95;1880431;76;21043;-63
2022/06/14 03:20:41;;;;;;;12.43;3.02;;;;;;;19.29;70.45;100526.89;1880361;76;21130;-62
2022/06/14 03:23:21;;;;;;;13.70;4.03;;;;;;;19.54;69.95;100534.27;1880267;76;21051;-62
2022/06/14 03:25:59;;;;;;;7.60;3.50;;;;;;;19.81;69.69;100524.55;1879859;76;21043;-62
2022/06/14 03:28:42;;;;;;;9.10;2.87;;;;;;;20.09;68.67;100529.47;1880231;76;21117;-62
2022/06/14 03:31:17;;;;;;;8.20;3.02;;;;;;;20.32;67.91;100532.89;1879470;76;21047;-62
2022/06/14 03:34:04;;;;;;;5.45;2.85;;;;;;;20.41;67.26;100538.31;1880282;76;21063;-62
2022/06/14 03:36:33;;;;;;;5.47;2.98;;;;;;;20.31;66.26;100529.88;1880144;76;21548;-62
2022/06/14 03:39:08;;;;;;;7.33;3.45;;;;;;;20.22;66.19;100537.67;1880030;76;21078;-62
2022/06/14 03:41:40;;;;;;;19.12;7.00;;;;;;;20.31;66.49;100536.56;1880086;76;21121;-58
2022/06/14 03:44:08;;;;;;;12.63;4.17;;;;;;;20.42;66.45;100542.70;1880060;76;21020;-59
2022/06/14 03:46:50;;;;;;;8.93;3.33;;;;;;;20.57;66.27;100545.06;1879875;76;21117;-61
2022/06/14 03:49:21;;;;;;;5.85;3.08;;;;;;;20.73;66.03;100543.30;1880076;76;21043;-62
2022/06/14 03:52:02;;;;;;;7.03;3.00;;;;;;;20.87;65.90;100552.84;1879997;76;21086;-62
2022/06/14 03:54:53;;;;;;;9.83;3.05;;;;;;;21.02;65.61;100563.55;1879231;76;21514;-61
2022/06/14 03:57:37;;;;;;;12.40;3.40;;;;;;;21.02;65.09;100564.89;1880096;76;21031;-62
2022/06/14 04:00:21;;;;;;;7.65;2.95;;;;;;;21.08;64.91;100558.16;1879703;76;21506;-61
2022/06/14 04:03:08;;;;;;;9.63;3.08;;;;;;;21.15;64.67;100556.16;1879138;76;21055;-60
2022/06/14 04:06:02;;;;;;;6.72;3.02;;;;;;;21.25;64.36;100566.06;1879835;76;21035;-61
2022/06/14 04:08:50;;;;;;;16.40;4.08;;;;;;;21.44;64.05;100562.15;1880220;76;21536;-60
2022/06/14 04:11:22;;;;;;;36.48;5.17;;;;;;;21.68;63.47;100556.48;1879523;76;21047;-60
2022/06/14 04:14:13;;;;;;;8.20;2.62;;;;;;;21.93;62.60;100559.64;1879691;76;21043;-61
2022/06/14 04:17:02;;;;;;;9.80;2.80;;;;;;;22.20;62.27;100566.19;1879982;76;21628;-57
2022/06/14 04:19:50;;;;;;;5.60;2.30;;;;;;;22.58;61.93;100567.23;1880086;76;21125;-61
2022/06/14 04:22:25;;;;;;;10.38;1.87;;;;;;;22.95;61.15;100575.38;1860968;76;21137;-62
2022/06/14 04:25:02;;;;;;;7.60;2.40;;;;;;;23.36;60.29;100575.99;1878034;76;21137;-62
2022/06/14 04:27:55;;;;;;;5.90;1.92;;;;;;;23.77;59.50;100571.13;1879461;76;21117;-61
2022/06/14 04:30:32;;;;;;;10.63;2.30;;;;;;;24.22;58.89;100581.09;1879813;76;21113;-60
2022/06/14 04:33:12;;;;;;;9.40;2.10;;;;;;;24.70;58.40;100585.77;1879837;76;21039;-60
2022/06/14 04:35:59;;;;;;;6.35;1.72;;;;;;;25.13;57.86;100585.91;1880024;76;21042;-61
2022/06/14 04:38:31;;;;;;;8.38;1.60;;;;;;;25.49;56.92;100580.41;1879987;76;21540;-61
2022/06/14 04:41:08;;;;;;;5.47;1.77;;;;;;;25.90;55.78;100580.08;1880368;76;21130;-61
2022/06/14 04:43:43;;;;;;;3.80;1.77;;;;;;;26.20;55.07;100579.17;1863484;76;21217;-61
2022/06/14 04:46:14;;;;;;;11.35;3.33;;;;;;;26.56;54.20;100579.73;1878339;76;21121;-61
2022/06/14 04:48:48;;;;;;;10.50;3.45;;;;;;;26.84;53.16;100583.47;1879678;76;21043;-61
2022/06/14 04:51:23;;;;;;;8.15;3.85;;;;;;;26.90;52.75;100581.42;1855728;76;21047;-61
2022/06/14 04:54:07;;;;;;;9.58;3.80;;;;;;;26.93;52.12;100584.31;1880230;76;21196;-60
2022/06/14 04:56:41;;;;;;;11.15;3.10;;;;;;;27.02;51.71;100584.64;1880034;76;21050;-60
2022/06/14 04:59:15;;;;;;;15.93;3.62;;;;;;;26.83;51.19;100588.52;1879596;76;21125;-60
2022/06/14 05:01:47;;;;;;;14.83;3.98;;;;;;;26.64;50.96;100587.53;1879994;76;21094;-60
2022/06/14 05:04:29;;;;;;;11.40;3.87;;;;;;;26.63;50.76;100581.77;1878740;76;21121;-59
2022/06/14 05:07:00;;;;;;;8.40;2.75;;;;;;;26.57;50.43;100579.21;1879171;76;21118;-60
2022/06/14 05:09:37;;;;;;;5.90;2.00;;;;;;;26.57;50.53;100580.05;1881489;75;21066;-59
2022/06/14 05:12:09;;;;;;;8.83;2.42;;;;;;;26.63;50.26;100579.91;1892524;75;21050;-60
2022/06/14 05:14:43;;;;;;;7.85;1.72;;;;;;;26.59;49.80;100577.19;1891959;76;21018;-60
2022/06/14 05:17:18;;;;;;;6.50;1.80;;;;;;;26.59;49.56;100569.92;1892703;76;21070;-60
2022/06/14 05:20:18;;;;;;;4.37;1.20;;;;;;;26.70;49.55;100570.64;1890905;76;21078;-62
2022/06/14 05:22:53;;;;;;;5.45;1.42;;;;;;;26.66;48.82;100578.23;1892623;76;21442;-62
2022/06/14 05:25:22;;;;;;;5.45;1.55;;;;;;;26.68;48.40;100579.42;1892533;75;21557;-59
2022/06/14 05:28:03;;;;;;;5.35;1.65;;;;;;;26.81;48.21;100572.99;1892744;76;21109;-59
2022/06/14 05:30:52;;;;;;;6.05;2.45;;;;;;;27.10;47.94;100579.20;1892723;76;21070;-59
2022/06/14 05:33:30;;;;;;;3.95;1.37;;;;;;;27.15;47.02;100583.59;1881577;76;21050;-59
2022/06/14 05:36:10;;;;;;;6.40;1.90;;;;;;;27.32;46.64;100586.29;1891684;76;21117;-59
2022/06/14 05:38:54;;;;;;;4.78;1.52;;;;;;;27.44;45.95;100581.34;1883444;76;21121;-59
2022/06/14 05:41:37;;;;;;;10.65;2.50;;;;;;;27.50;45.56;100585.56;1891120;76;21180;-58
2022/06/14 05:44:14;;;;;;;7.50;2.75;;;;;;;27.60;45.47;100584.51;1892586;76;21128;-58
2022/06/14 05:46:52;;;;;;;4.15;2.70;;;;;;;27.89;45.58;100587.94;1892698;76;21093;-58
2022/06/14 05:49:26;;;;;;;4.90;2.37;;;;;;;28.17;45.35;100587.47;1890429;76;21516;-58
2022/06/14 05:52:10;;;;;;;5.60;3.40;;;;;;;28.48;45.06;100584.72;1892636;76;21153;-58
2022/06/14 05:54:42;;;;;;;3.67;2.12;;;;;;;28.71;44.42;100583.88;1892638;76;21074;-58
2022/06/14 05:57:22;;;;;;;2.12;1.35;;;;;;;28.82;43.90;100582.92;1884906;75;21525;-58
2022/06/14 05:59:56;;;;;;;7.45;1.65;;;;;;;28.88;43.75;100588.12;1892569;76;21043;-58
2022/06/14 06:02:31;;;;;;;6.00;1.67;;;;;;;28.50;43.74;100590.27;1892594;76;21191;-58
2022/06/14 06:05:14;;;;;;;6.15;1.77;;;;;;;28.07;43.79;100591.25;1892407;76;21109;-60
2022/06/14 06:07:49;;;;;;;4.85;1.42;;;;;;;27.97;43.93;100592.48;1890356;75;21544;-58
2022/06/14 06:10:26;;;;;;;3.00;1.20;;;;;;;28.19;44.21;100592.19;1882301;75;21180;-58
2022/06/14 06:12:57;;;;;;;5.37;1.82;;;;;;;28.29;44.03;100596.84;1880564;76;21579;-59
2022/06/14 06:15:35;;;;;;;6.92;2.17;;;;;;;28.24;43.88;100590.63;1880418;76;21019;-59
2022/06/14 06:18:10;;;;;;;6.70;2.35;;;;;;;28.34;43.91;100593.09;1879765;76;21200;-59
2022/06/14 06:20:44;;;;;;;12.05;5.85;;;;;;;28.36;43.85;100586.98;1879842;76;21051;-59
2022/06/14 06:23:25;;;;;;;9.68;4.03;;;;;;;28.37;43.88;100581.05;1880438;76;21051;-59
2022/06/14 06:25:58;;;;;;;3.15;1.62;;;;;;;28.49;43.88;100587.73;1880393;76;21190;-59
2022/06/14 06:28:27;;;;;;;;;;;;;;;28.71;43.62;100590.13;1883090;76;21071;-59
2022/06/14 06:30:58;;;;;;;3.98;1.85;;;;;;;28.88;43.12;100588.98;1880292;76;20151;-59
2022/06/14 06:33:30;;;;;;;4.25;1.82;;;;;;;29.03;43.38;100590.85;1880023;76;21051;-59
2022/06/14 06:36:18;;;;;;;8.83;1.98;;;;;;;29.06;43.43;100594.56;1880384;76;21035;-59
2022/06/14 06:39:07;;;;;;;2.25;1.57;;;;;;;29.00;43.28;100592.08;1880187;76;21109;-59
2022/06/14 06:41:55;;;;;;;5.30;1.40;;;;;;;29.03;43.29;100594.42;1880273;76;21114;-58
2022/06/14 06:44:28;;;;;;;6.17;1.50;;;;;;;29.15;43.12;100597.55;1879850;76;21051;-62
2022/06/14 06:46:59;;;;;;;5.30;1.95;;;;;;;29.24;42.90;100601.03;1880251;76;21047;-62
2022/06/14 06:49:31;;;;;;;3.80;1.20;;;;;;;29.39;42.42;100598.32;1866759;76;21055;-62
2022/06/14 06:52:02;;;;;;;4.65;1.40;;;;;;;29.34;42.05;100592.61;1879145;76;21051;-60
2022/06/14 06:54:37;;;;;;;4.40;1.40;;;;;;;29.54;42.14;100592.37;1880230;76;21050;-60
2022/06/14 06:57:07;;;;;;;9.05;1.57;;;;;;;29.94;41.70;100598.34;1880239;76;21067;-60
2022/06/14 06:59:39;;;;;;;3.15;1.32;;;;;;;30.42;40.86;100598.38;1880194;76;21072;-59
2022/06/14 07:02:22;;;;;;;3.70;1.30;;;;;;;30.61;39.92;100601.79;1877881;76;21129;-58
2022/06/14 07:05:05;;;;;;;2.20;1.20;;;;;;;30.91;39.72;100602.52;1859055;76;21215;-58
2022/06/14 07:07:55;;;;;;;3.10;1.22;;;;;;;31.32;39.16;100607.72;1880237;76;21114;-58
2022/06/14 07:10:38;;;;;;;2.72;1.32;;;;;;;31.50;37.92;100611.28;1880140;76;21601;-59
2022/06/14 07:13:19;;;;;;;4.95;1.25;;;;;;;31.61;37.79;100602.55;1879864;76;21121;-60
2022/06/14 07:15:57;;;;;;;4.70;1.52;;;;;;;32.03;37.94;100602.56;1880056;76;21506;-59
2022/06/14 07:18:31;;;;;;;2.92;1.50;;;;;;;32.61;37.39;100601.56;1873952;76;21043;-59
2022/06/14 07:21:12;;;;;;;4.45;1.30;;;;;;;32.96;36.64;100599.98;1879970;76;21521;-60
2022/06/14 07:24:02;;;;;;;4.55;1.05;;;;;;;33.06;36.22;100601.75;1879765;76;21055;-60
2022/06/14 07:26:42;;;;;;;3.62;1.00;;;;;;;33.34;36.08;100603.41;1880180;76;21055;-60
2022/06/14 07:29:38;;;;;;;1.37;1.00;;;;;;;33.06;35.10;100596.83;1879984;76;21039;-60
2022/06/14 07:32:09;;;;;;;5.67;1.60;;;;;;;32.50;35.44;100591.25;1879993;76;21549;-61
2022/06/14 07:34:40;;;;;;;4.43;2.73;;;;;;;31.98;35.56;100595.48;1878530;76;21047;-59
2022/06/14 07:37:37;;;;;;;3.50;1.72;;;;;;;31.80;35.79;100602.34;1880066;76;21121;-60
2022/06/14 07:40:09;;;;;;;4.50;2.33;;;;;;;31.69;36.26;100598.31;1880069;76;21093;-60
2022/06/14 07:42:42;;;;;;;8.10;1.50;;;;;;;31.67;36.45;100606.34;1878647;76;21047;-59
2022/06/14 07:45:21;;;;;;;4.43;1.73;;;;;;;31.80;36.36;100604.20;1880339;76;21043;-62
2022/06/14 07:47:50;;;;;;;3.98;1.50;;;;;;;31.62;36.39;100610.22;1878740;76;21419;-59
2022/06/14 07:50:32;;;;;;;3.67;1.15;;;;;;;31.59;36.43;100606.53;1878409;76;21074;-60
2022/06/14 07:53:08;;;;;;;8.00;2.02;;;;;;;31.43;36.59;100607.16;1879930;76;21130;-60
2022/06/14 07:56:00;;;;;;;5.50;1.40;;;;;;;30.80;36.88;100601.62;1880039;76;21047;-60
2022/06/14 07:58:35;;;;;;;6.58;1.50;;;;;;;30.47;37.42;100604.91;1880178;75;21043;-60
2022/06/14 08:01:09;;;;;;;5.08;1.50;;;;;;;30.21;38.01;100604.06;1878988;76;21149;-60
2022/06/14 08:03:55;;;;;;;3.33;1.47;;;;;;;30.01;38.55;100603.34;1880110;76;21063;-60
2022/06/14 08:06:30;;;;;;;3.37;1.40;;;;;;;29.93;38.90;100599.88;1879618;76;21086;-60
2022/06/14 08:09:02;;;;;;;3.65;1.77;;;;;;;29.87;39.15;100597.94;1879725;76;21047;-60
2022/06/14 08:11:48;;;;;;;1.60;1.10;;;;;;;29.90;39.32;100595.69;1879637;75;21140;-60
2022/06/14 08:14:35;;;;;;;3.92;1.70;;;;;;;29.88;39.42;100592.82;1880081;76;21113;-61
2022/06/14 08:17:08;;;;;;;2.92;1.17;;;;;;;29.79;39.43;100592.11;1868734;76;21047;-60
2022/06/14 08:19:42;;;;;;;2.87;1.20;;;;;;;29.87;39.42;100591.98;1879930;76;21039;-60
2022/06/14 08:22:16;;;;;;;1.67;1.25;;;;;;;29.84;39.07;100599.14;1880018;76;21113;-60
2022/06/14 08:24:48;;;;;;;1.25;1.12;;;;;;;29.93;39.05;100592.58;1877718;76;21099;-62
2022/06/14 08:27:19;;;;;;;3.90;1.40;;;;;;;29.88;38.71;100589.62;1880080;76;21086;-61
2022/06/14 08:30:03;;;;;;;3.98;1.60;;;;;;;29.82;38.68;100585.79;1880104;76;21070;-61
2022/06/14 08:32:34;;;;;;;8.95;2.10;;;;;;;29.68;38.74;100582.55;1879394;76;21083;-62
2022/06/14 08:35:24;;;;;;;3.85;1.85;;;;;;;29.51;38.82;100580.56;1880217;76;21522;-61
2022/06/14 08:38:01;;;;;;;3.25;1.50;;;;;;;29.82;38.87;100578.14;1879902;76;21125;-62
2022/06/14 08:40:33;;;;;;;3.15;1.30;;;;;;;30.10;38.48;100582.84;1879926;76;21039;-63
2022/06/14 08:43:13;;;;;;;2.67;1.30;;;;;;;30.46;38.26;100572.50;1879371;76;21113;-62
2022/06/14 08:45:48;;;;;;;4.90;1.87;;;;;;;30.48;37.54;100578.58;1880002;76;21490;-60
2022/06/14 08:48:31;;;;;;;8.60;1.50;;;;;;;30.18;37.63;100574.07;1878841;76;21043;-60
2022/06/14 08:51:11;;;;;;;4.65;1.60;;;;;;;30.59;37.91;100578.88;1878554;76;21498;-60
2022/06/14 08:54:10;;;;;;;4.65;1.57;;;;;;;30.93;37.51;100577.33;1880039;76;21050;-60
2022/06/14 08:57:05;;;;;;;2.33;1.57;;;;;;;31.32;36.79;100586.78;1878520;76;21043;-60
2022/06/14 08:59:45;;;;;;;1.45;1.00;;;;;;;31.66;36.43;100585.63;1880191;76;21697;-60
2022/06/14 09:02:22;;;;;;;1.82;1.20;;;;;;;32.17;36.42;100586.58;1879332;76;21505;-60
2022/06/14 09:04:57;;;;;;;1.85;1.40;;;;;;;32.28;35.95;100581.88;1880094;76;21047;-60
2022/06/14 09:07:50;;;;;;;3.40;1.40;;;;;;;32.59;35.91;100576.91;1879202;76;21203;-62
2022/06/14 09:10:31;;;;;;;2.58;1.42;;;;;;;33.19;35.81;100576.91;1878080;75;21475;-59
2022/06/14 09:13:18;;;;;;;3.58;1.80;;;;;;;33.61;35.57;100580.14;1888706;75;21603;-59
2022/06/14 09:16:24;;;;;;;6.40;1.85;;;;;;;33.80;34.90;100580.60;1892632;76;21124;-61
2022/06/14 09:19:00;;;;;;;2.37;1.35;;;;;;;34.23;34.82;100581.36;1892666;76;21043;-61
2022/06/14 09:22:06;;;;;;;2.20;1.60;;;;;;;34.47;34.46;100577.49;1892887;76;21187;-62
2022/06/14 09:24:53;;;;;;;5.65;1.77;;;;;;;34.22;33.95;100575.58;1892642;76;21553;-62
2022/06/14 09:27:42;;;;;;;11.65;2.80;;;;;;;34.31;34.13;100568.50;1892840;76;21120;-61
2022/06/14 09:30:32;;;;;;;2.95;1.60;;;;;;;34.19;33.70;100572.44;1892796;76;21031;-63
2022/06/14 09:33:15;;;;;;;4.25;1.90;;;;;;;34.19;33.70;100572.44;1856505;74;21120;-61
2022/06/14 09:35:59;;;;;;;2.25;1.70;;;;;;;33.82;33.71;100564.84;1892604;76;21560;-61
2022/06/14 09:38:34;;;;;;;4.08;1.80;;;;;;;33.82;33.71;100564.84;1892811;76;21545;-58
2022/06/14 09:41:07;;;;;;;4.60;1.80;;;;;;;34.04;33.53;100578.17;1890073;75;21047;-58
2022/06/14 09:43:51;;;;;;;8.40;2.45;;;;;;;34.04;33.56;100568.62;1892739;76;21578;-58
2022/06/14 09:46:40;;;;;;;5.70;1.87;;;;;;;33.92;33.60;100569.85;1892677;76;21108;-58
2022/06/14 09:49:17;;;;;;;3.33;1.67;;;;;;;33.23;33.87;100568.60;1891881;76;21113;-59
2022/06/14 09:52:16;;;;;;;4.17;2.25;;;;;;;32.95;34.61;100566.94;1889288;74;21050;-60
2022/06/14 09:55:03;;;;;;;6.40;1.92;;;;;;;32.43;34.71;100582.23;1892724;76;21089;-60
2022/06/14 09:57:46;;;;;;;3.22;1.62;;;;;;;31.63;35.44;100581.45;1892628;76;21136;-60
2022/06/14 10:00:27;;;;;;;4.00;2.22;;;;;;;31.62;35.54;100576.20;1891170;76;21094;-59
2022/06/14 10:03:32;;;;;;;3.27;1.70;;;;;;;31.77;35.48;100575.52;1892746;76;21168;-59
2022/06/14 10:06:06;;;;;;;2.95;2.20;;;;;;;31.75;35.48;100592.05;1892467;76;21096;-61
2022/06/14 10:08:59;;;;;;;3.75;2.10;;;;;;;31.92;35.64;100584.36;1891838;76;21359;-61
2022/06/14 10:11:31;;;;;;;;;;;;;;;31.88;35.62;100592.63;1895420;76;21205;-62
2022/06/14 10:14:21;;;;;;;4.67;1.92;;;;;;;31.17;35.62;100597.78;1892934;76;20151;-60
2022/06/14 10:16:59;;;;;;;2.83;1.77;;;;;;;30.79;36.08;100592.64;1892629;76;21051;-62
2022/06/14 10:19:49;;;;;;;6.35;1.77;;;;;;;30.64;36.29;100589.18;1892030;76;21046;-59
2022/06/14 10:22:43;;;;;;;8.35;2.37;;;;;;;30.37;36.43;100583.48;1888953;76;21579;-59
2022/06/14 10:25:37;;;;;;;6.62;2.40;;;;;;;30.27;36.85;100588.38;1892169;76;21077;-58
2022/06/14 10:28:32;;;;;;;3.15;2.12;;;;;;;30.39;37.06;100588.20;1892591;76;21066;-60
2022/06/14 10:31:24;;;;;;;11.05;2.02;;;;;;;30.28;37.34;100591.40;1892530;76;21120;-60
2022/06/14 10:34:04;;;;;;;3.10;1.40;;;;;;;30.78;37.47;100579.25;1875863;76;21018;-63
2022/06/14 10:36:42;;;;;;;3.60;1.65;;;;;;;30.92;37.25;100579.71;1890399;76;21489;-62
2022/06/14 10:39:34;;;;;;;4.17;1.90;;;;;;;31.01;37.04;100576.33;1892531;76;21113;-61
2022/06/14 10:42:07;;;;;;;6.70;1.75;;;;;;;31.24;37.01;100573.86;1887574;76;21168;-60
2022/06/14 10:44:55;;;;;;;6.95;1.95;;;;;;;31.44;36.95;100580.25;1891703;76;21409;-59
2022/06/14 10:47:46;;;;;;;3.08;2.08;;;;;;;31.36;37.04;100583.98;1892724;75;21548;-60
2022/06/14 10:50:39;;;;;;;5.10;1.72;;;;;;;31.11;37.32;100577.33;1892699;76;21042;-60
2022/06/14 10:53:25;;;;;;;7.37;1.55;;;;;;;31.12;37.53;100588.55;1892294;75;21051;-60
2022/06/14 10:56:13;;;;;;;4.40;1.42;;;;;;;31.02;37.37;100588.88;1891089;76;21125;-62
2022/06/14 10:59:03;;;;;;;1.95;1.35;;;;;;;30.84;37.39;100589.84;1892594;76;21050;-58
2022/06/14 11:01:54;;;;;;;6.03;1.60;;;;;;;30.31;37.81;100584.23;1892684;76;21043;-59
2022/06/14 11:04:26;;;;;;;3.75;1.40;;;;;;;29.86;38.51;100579.96;1892669;76;21038;-59
2022/06/14 11:07:13;;;;;;;2.92;2.00;;;;;;;29.43;39.22;100579.28;1892701;76;21015;-59
2022/06/14 11:09:45;;;;;;;4.55;1.65;;;;;;;29.07;39.94;100576.77;1892721;74;21108;-59
2022/06/14 11:12:39;;;;;;;4.47;1.67;;;;;;;28.83;40.50;100579.72;1888601;76;21121;-59
2022/06/14 11:15:14;;;;;;;3.72;1.52;;;;;;;28.73;40.82;100586.73;1892704;76;21058;-60
2022/06/14 11:17:48;;;;;;;4.67;1.87;;;;;;;28.53;41.46;100582.84;1890850;76;21047;-59
2022/06/14 11:20:19;;;;;;;5.92;1.85;;;;;;;28.37;41.54;100579.20;1892735;76;21489;-60
2022/06/14 11:23:02;;;;;;;3.45;1.92;;;;;;;28.32;41.90;100587.54;1892702;76;21093;-60
2022/06/14 11:25:43;;;;;;;6.22;2.08;;;;;;;28.19;42.25;100589.48;1858318;76;21051;-60
2022/06/14 11:28:39;;;;;;;5.08;1.80;;;;;;;28.13;42.26;100588.83;1892651;76;21113;-60
2022/06/14 11:31:10;;;;;;;3.05;1.35;;;;;;;28.24;41.87;100584.38;1892536;76;21058;-60
2022/06/14 11:34:17;;;;;;;3.92;1.62;;;;;;;28.46;41.73;100581.35;1891385;76;21121;-60
2022/06/14 11:37:06;;;;;;;7.53;1.80;;;;;;;28.70;41.59;100584.41;1892595;75;21513;-61
2022/06/14 11:39:45;;;;;;;3.30;1.52;;;;;;;28.99;41.35;100578.70;1890717;76;21050;-63
2022/06/14 11:42:28;;;;;;;7.90;2.30;;;;;;;29.26;41.03;100582.70;1891627;76;21042;-59
2022/06/14 11:45:00;;;;;;;6.50;1.50;;;;;;;29.50;40.89;100582.93;1879117;75;21610;-59
2022/06/14 11:47:43;;;;;;;11.50;3.02;;;;;;;29.66;40.63;100576.47;1892864;76;21098;-60
2022/06/14 11:50:34;;;;;;;10.63;2.00;;;;;;;29.54;40.99;100582.87;1891467;76;21043;-60
2022/06/14 11:53:24;;;;;;;6.67;1.77;;;;;;;29.31;41.73;100589.77;1892634;76;21568;-62
2022/06/14 11:56:07;;;;;;;7.12;2.02;;;;;;;29.03;42.43;100590.85;1892610;76;21042;-57
2022/06/14 11:58:50;;;;;;;4.92;2.08;;;;;;;28.75;43.04;100594.16;1891946;76;21042;-60
2022/06/14 12:01:27;;;;;;;6.65;1.72;;;;;;;28.50;43.47;100583.50;1891324;76;21187;-61
2022/06/14 12:04:07;;;;;;;5.85;1.95;;;;;;;28.23;43.89;100584.03;1891954;75;21038;-61
2022/06/14 12:06:39;;;;;;;4.40;1.70;;;;;;;27.90;44.44;100585.58;1891876;76;21046;-61
2022/06/14 12:09:31;;;;;;;3.35;2.17;;;;;;;27.66;44.94;100581.93;1892543;76;21113;-61
2022/06/14 12:12:09;;;;;;;8.78;1.50;;;;;;;27.50;45.24;100585.56;1892840;76;21042;-60
2022/06/14 12:14:49;;;;;;;10.60;4.03;;;;;;;27.44;45.50;100584.05;1882192;76;21126;-61
2022/06/14 12:17:33;;;;;;;6.25;2.25;;;;;;;27.44;45.88;100579.99;1880361;76;21666;-62
2022/06/14 12:20:04;;;;;;;21.10;6.72;;;;;;;27.47;46.04;100575.59;1880138;75;21553;-61
2022/06/14 12:23:08;;;;;;;11.45;2.42;;;;;;;27.53;46.20;100580.30;1880263;76;21462;-59
2022/06/14 12:29:00;;;;;;;4.95;1.62;;;;;;;27.86;46.20;100580.99;1880284;76;21043;-59
2022/06/14 12:31:44;;;;;;;4.17;1.95;;;;;;;27.95;46.27;100579.13;1880254;76;21486;-59